Latest Coastal Weather Observations for Gold Coast Seaway

IDQ60701

Issued at 10:01 pm EST Wednesday 28 January 2015 (issued every 10 minutes, with the page automatically refreshed every 10 minutes)

About coastal observations | Map of coastal stations | Coastal observations for QLD | Marine services | Other Formats
Station Details ID: 040764 Name: GOLD COAST SEAWAY Lat: -27.94 Lon: 153.43 Height: 2.98 m
Data from the previous 72 hours. | See also: Recent months at Gold Coast Seaway
Date/Time
EST
Temp

°C
Wind Pressure Rain
since 9am
mm
Weather Cloud Vis
km
Sea
Height
m
Swell
Dir
 
Speed
knots
Gust
knots
hPa Trend Height
m
Period
s
Dir
28/10:00pm 21.9 S 13 19 1007.7 - 0.0 - - - - - - -
28/09:30pm 21.9 S 14 19 1007.9 - 0.0 - - - - - - -
28/09:00pm 22.0 S 15 19 1007.8 - 0.0 - - - - - - -
28/08:30pm 22.2 S 15 20 1007.7 - 0.0 - - - - - - -
28/08:00pm 22.1 S 18 24 1007.6 - 0.0 - - - - - - -
28/07:30pm 22.1 S 13 20 1007.4 - 0.0 - - - - - - -
28/07:00pm 22.3 S 17 23 1007.3 - 0.0 - - - - - - -
28/06:30pm 22.7 S 18 25 1007.1 - 0.0 - - - - - - -
28/06:00pm 23.2 S 16 22 1006.6 - 0.0 - - - - - - -
28/05:30pm 24.1 S 15 19 1006.3 - 0.0 - - - - - - -
28/05:00pm 25.0 S 17 22 1006.1 - 0.0 - - - - - - -
28/04:30pm 25.5 S 17 22 1005.8 - 0.0 - - - - - - -
28/04:00pm 25.6 S 18 22 1005.6 - 0.0 - - - - - - -
28/03:30pm 24.0 S 21 33 1005.9 - 0.0 - - - - - - -
28/03:25pm 24.8 S 17 27 1005.9 - 0.0 - - - - - - -
28/03:00pm 24.6 S 14 19 1006.0 - 0.0 - - - - - - -
28/02:30pm 25.0 S 16 22 1006.1 - 0.0 - - - - - - -
28/02:00pm 24.9 S 22 29 1006.4 - 0.0 - - - - - - -
28/01:30pm 25.5 S 22 28 1006.3 - 0.0 - - - - - - -
28/01:00pm 26.3 S 23 29 1006.2 - 0.0 - - - - - - -
28/12:30pm 26.3 S 22 27 1006.1 - 0.0 - - - - - - -
28/12:00pm 27.4 S 21 26 1006.0 - 0.0 - - - - - - -
28/11:30am 27.1 S 19 24 1006.2 - 0.0 - - - - - - -
28/11:00am 25.1 S 19 25 1006.4 - 0.0 - - - - - - -
28/10:43am 24.3 S 17 27 1006.4 - 0.0 - - - - - - -
28/10:30am 24.2 S 18 21 1006.2 - 0.0 - - - - - - -
28/10:00am 23.5 S 18 24 1006.4 - 0.0 - - - - - - -
28/09:30am 22.4 S 14 19 1006.7 - 0.0 - - - - - - -
28/09:00am 22.2 S 16 24 1006.8 - 0.8 Rain - - - - - -
28/08:30am 22.2 S 15 19 1006.3 - 0.6 - - - - - - -
28/08:00am 22.0 S 12 18 1006.2 - 0.6 - - - - - - -
28/07:30am 21.7 S 11 16 1006.0 - 0.6 - - - - - - -
28/07:00am 21.1 S 11 16 1005.9 - 0.6 - - - - - - -
28/06:30am 21.1 S 13 17 1005.7 - 0.4 - - - - - - -
28/06:00am 21.5 S 12 17 1005.5 - 0.2 - - - - - - -
28/05:30am 21.5 S 10 15 1005.3 - 0.2 - - - - - - -
28/05:00am 21.5 S 13 18 1005.0 - 0.2 - - - - - - -
28/04:30am 21.4 S 13 20 1005.0 - 0.2 - - - - - - -
28/04:00am 21.4 S 16 20 1005.0 - 0.2 - - - - - - -
28/03:30am 21.6 S 18 24 1005.2 - 0.2 - - - - - - -
28/03:00am 21.9 S 16 24 1005.3 - 0.2 - - - - - - -
28/02:30am 21.7 S 17 23 1005.3 - 0.2 - - - - - - -
28/02:00am 21.8 S 17 24 1005.8 - 0.2 - - - - - - -
28/01:30am 21.6 S 18 25 1006.4 - 0.2 - - - - - - -
28/01:00am 21.5 S 16 22 1006.9 - 0.2 - - - - - - -
28/12:30am 21.8 S 16 22 1007.2 - 0.2 - - - - - - -
28/12:00am 21.8 S 18 25 1007.3 - 0.2 Recent precip. - - - - - -
 
Date/Time
EST
Temp

°C
Wind Pressure Rain
since 9am
mm
Weather Cloud Vis
km
Sea
Height
m
Swell
Dir
 
Speed
knots
Gust
knots
hPa Trend Height
m
Period
s
Dir
27/11:30pm 22.9 S 19 25 1007.4 - 0.0 - - - - - - -
27/11:00pm 23.3 S 17 21 1007.2 - 0.0 - - - - - - -
27/10:30pm 23.9 S 15 20 1007.5 - 0.0 - - - - - - -
27/10:00pm 25.1 SSE 20 25 1007.5 - 0.0 - - - - - - -
27/09:30pm 25.0 SSE 20 24 1007.4 - 0.0 - - - - - - -
27/09:00pm 25.3 SE 19 24 1007.5 - 0.0 - - - - - - -
27/08:30pm 25.2 SE 18 22 1007.1 - 0.0 - - - - - - -
27/08:00pm 25.3 SE 18 21 1006.9 - 0.0 - - - - - - -
27/07:30pm 25.5 SE 19 21 1006.6 - 0.0 - - - - - - -
27/07:00pm 25.3 SE 18 21 1006.3 - 0.0 - - - - - - -
27/06:30pm 25.5 SE 18 21 1006.2 - 0.0 - - - - - - -
27/06:00pm 25.5 SE 19 21 1005.9 - 0.0 - - - - - - -
27/05:30pm 25.9 SE 18 20 1005.6 - 0.0 - - - - - - -
27/05:00pm 26.3 SE 18 21 1005.3 - 0.0 - - - - - - -
27/04:30pm 26.8 SE 18 20 1005.3 - 0.0 - - - - - - -
27/04:00pm 27.0 SE 19 21 1005.3 - 0.0 - - - - - - -
27/03:30pm 27.7 SE 18 20 1005.6 - 0.0 - - - - - - -
27/03:00pm 28.5 SE 18 21 1005.9 - 0.0 - - - - - - -
27/02:30pm 28.5 SE 18 21 1006.4 - 0.0 - - - - - - -
27/02:00pm 28.4 SE 19 21 1006.6 - 0.0 - - - - - - -
27/01:30pm 27.7 SE 18 20 1006.9 - 0.0 - - - - - - -
27/01:00pm 27.8 SE 18 20 1007.0 - 0.0 - - - - - - -
27/12:30pm 29.0 - - - 1007.3 - 0.0 - - - - - - -
27/12:00pm 29.3 - - - 1007.6 - 0.0 - - - - - - -
27/11:30am 29.9 - - - 1008.1 - 0.0 - - - - - - -
27/11:00am 29.0 - - - 1008.3 - 0.0 - - - - - - -
27/10:30am 28.8 SE 17 19 1008.4 - 0.0 - - - - - - -
27/10:00am 28.6 - - - 1008.3 - 0.0 - - - - - - -
27/09:30am 28.9 SE 17 19 1008.5 - 0.0 - - - - - - -
27/09:00am 28.6 - - - 1008.1 - 0.0 - - - - - - -
27/08:30am 28.6 - - - 1008.0 - 0.0 - - - - - - -
27/08:00am 27.7 SE 17 18 1008.1 - 0.0 - - - - - - -
27/07:30am 27.3 - - - 1008.0 - 0.0 - - - - - - -
27/07:00am 26.7 - - - 1007.9 - 0.0 - - - - - - -
27/06:30am 26.3 - - - 1007.8 - 0.0 - - - - - - -
27/06:00am 25.8 - - - 1007.5 - 0.0 - - - - - - -
27/05:30am 25.6 - - - 1007.3 - 0.0 - - - - - - -
27/05:00am 25.5 SE 16 19 1006.9 - 0.0 - - - - - - -
27/04:30am 25.6 - - - 1006.6 - 0.0 - - - - - - -
27/04:00am 25.7 - - - 1006.6 - 0.0 - - - - - - -
27/03:30am 25.7 SE 16 18 1006.6 - 0.0 - - - - - - -
27/03:00am 25.6 SE 17 19 1006.4 - 0.0 - - - - - - -
27/02:30am 25.7 SE 18 20 1006.4 - 0.0 - - - - - - -
27/02:00am 25.7 SE 17 18 1006.8 - 0.0 - - - - - - -
27/01:30am 25.6 SE 16 18 1007.0 - 0.0 - - - - - - -
27/01:00am 25.6 SE 17 20 1007.2 - 0.0 - - - - - - -
27/12:30am 25.9 SE 17 20 1007.3 - 0.0 - - - - - - -
27/12:00am 26.0 SE 18 20 1007.7 - 0.0 - - - - - - -
 
Date/Time
EST
Temp

°C
Wind Pressure Rain
since 9am
mm
Weather Cloud Vis
km
Sea
Height
m
Swell
Dir
 
Speed
knots
Gust
knots
hPa Trend Height
m
Period
s
Dir
26/11:30pm 26.1 SE 18 20 1008.0 - 0.0 - - - - - - -
26/11:00pm 26.2 SE 17 18 1008.4 - 0.0 - - - - - - -
26/10:30pm 26.2 SE 16 19 1008.1 - 0.0 - - - - - - -
26/10:00pm 26.2 SE 15 18 1008.5 - 0.0 - - - - - - -
26/09:30pm 26.3 SE 17 20 1008.4 - 0.0 - - - - - - -
26/09:00pm 26.3 SE 17 19 1008.8 - 0.0 - - - - - - -
26/08:30pm 26.4 SE 16 18 1008.9 - 0.0 - - - - - - -
26/08:00pm 26.6 SE 16 19 1009.0 - 0.0 - - - - - - -
26/07:30pm 26.3 SE 18 21 1008.4 - 0.0 - - - - - - -
26/07:00pm 26.4 SSE 16 22 1008.3 - 0.0 - - - - - - -
26/06:30pm 26.6 SE 21 25 1007.6 - 0.0 - - - - - - -
26/06:00pm 26.8 SSE 18 22 1007.5 - 0.0 - - - - - - -
26/05:30pm 26.8 SSE 19 23 1007.2 - 0.0 - - - - - - -
26/05:00pm 27.1 SSE 19 23 1006.8 - 0.0 - - - - - - -
26/04:30pm 27.2 SSE 19 22 1006.1 - 0.0 - - - - - - -
26/04:00pm 27.8 SE 18 21 1006.2 - 0.0 - - - - - - -
26/03:30pm 29.3 SSE 18 22 1005.8 - 0.0 - - - - - - -
26/03:00pm 28.8 SSE 16 18 1005.9 - 0.0 - - - - - - -
26/02:30pm 29.1 SE 16 19 1005.6 - 0.0 - - - - - - -
26/02:00pm 30.3 SE 15 17 1005.8 - 0.0 - - - - - - -
26/01:30pm 29.8 SE 15 16 1006.2 - 0.0 - - - - - - -
26/01:00pm 30.7 SE 14 15 1006.0 - 0.0 - - - - - - -
26/12:30pm 30.4 SE 13 15 1006.5 - 0.0 - - - - - - -
26/12:00pm 30.4 SE 13 15 1006.9 - 0.0 - - - - - - -
26/11:30am 29.9 SE 13 15 1007.3 - 0.0 - - - - - - -
26/11:00am 29.7 SE 15 17 1007.5 - 0.0 - - - - - - -
26/10:30am 30.5 SE 17 19 1007.6 - 0.0 - - - - - - -
26/10:00am 29.9 SE 16 18 1007.5 - 0.0 - - - - - - -
26/09:30am 29.9 SSE 13 15 1007.7 - 0.0 - - - - - - -
26/09:00am 29.1 SSE 10 13 1007.5 - 0.0 - - - - - - -
26/08:30am 28.4 SSE 11 15 1007.3 - 0.0 - - - - - - -
26/08:00am 27.8 SSE 14 17 1007.2 - 0.0 - - - - - - -
26/07:30am 27.2 SSE 9 10 1007.1 - 0.0 - - - - - - -
26/07:00am 26.3 SSW 7 8 1006.9 - 0.0 - - - - - - -
26/06:30am 24.7 SSW 5 6 1006.6 - 0.0 - - - - - - -
26/06:00am 23.6 SSW 5 6 1006.2 - 0.0 - - - - - - -
26/05:30am 22.9 SSW 5 6 1005.9 - 0.0 - - - - - - -
26/05:00am 23.0 SSW 4 5 1005.6 - 0.0 - - - - - - -
26/04:30am 23.4 SSW 3 5 1005.5 - 0.0 - - - - - - -
26/04:00am 22.9 SSW 5 5 1005.5 - 0.0 - - - - - - -
26/03:30am 22.7 SSW 3 4 1005.4 - 0.0 - - - - - - -
26/03:00am 22.7 SSW 2 4 1005.3 - 0.0 - - - - - - -
26/02:30am 23.1 SSW 1 3 1005.1 - 0.0 - - - - - - -
26/02:00am 23.5 SSW 5 6 1005.0 - 0.0 - - - - - - -
26/01:30am 23.6 SSW 7 8 1005.4 - 0.0 - - - - - - -
26/01:00am 23.9 SSW 5 6 1005.8 - 0.0 - - - - - - -
26/12:30am 23.9 SSW 4 6 1005.9 - 0.0 - - - - - - -
26/12:00am 23.8 SSW 3 4 1006.1 - 0.0 - - - - - - -
 
Date/Time
EST
Temp

°C
Wind Pressure Rain
since 9am
mm
Weather Cloud Vis
km
Sea
Height
m
Swell
Dir
 
Speed
knots
Gust
knots
hPa Trend Height
m
Period
s
Dir
25/11:30pm 24.0 SSW 4 5 1006.4 - 0.0 - - - - - - -
25/11:00pm 24.2 SSW 6 8 1006.3 - 0.0 - - - - - - -
25/10:30pm 24.6 SSW 6 8 1006.0 - 0.0 - - - - - - -

Other Formats:

Comma delimited format used in spreadsheet applications
http://www.bom.gov.au/fwo/IDQ60701/IDQ60701.94580.axf

JavaScript Object Notation format (JSON) in row-major order
http://www.bom.gov.au/fwo/IDQ60701/IDQ60701.94580.json